sensor_id;sensor_type;location;lat;lon;timestamp;pressure;altitude;pressure_sealevel;temperature;humidity
76285;BME280;65096;50.998;7.098;2023-01-05T00:01:00;101044.56;;;10.29;61.91
76285;BME280;65096;50.998;7.098;2023-01-05T00:03:27;101033.19;;;10.15;62.64
76285;BME280;65096;50.998;7.098;2023-01-05T00:06:00;101045.34;;;10.24;62.17
76285;BME280;65096;50.998;7.098;2023-01-05T00:08:27;101046.19;;;10.23;61.86
76285;BME280;65096;50.998;7.098;2023-01-05T00:10:54;101048.81;;;10.26;62.30
76285;BME280;65096;50.998;7.098;2023-01-05T00:13:39;101063.03;;;10.00;62.67
76285;BME280;65096;50.998;7.098;2023-01-05T00:16:23;101055.09;;;9.83;64.13
76285;BME280;65096;50.998;7.098;2023-01-05T00:19:09;101056.22;;;10.03;63.44
76285;BME280;65096;50.998;7.098;2023-01-05T00:21:54;101058.03;;;10.09;63.04
76285;BME280;65096;50.998;7.098;2023-01-05T00:24:37;101054.72;;;10.19;62.00
76285;BME280;65096;50.998;7.098;2023-01-05T00:27:03;101076.91;;;10.08;63.09
76285;BME280;65096;50.998;7.098;2023-01-05T00:29:32;101070.09;;;10.13;62.86
76285;BME280;65096;50.998;7.098;2023-01-05T00:31:58;101075.19;;;10.07;62.98
76285;BME280;65096;50.998;7.098;2023-01-05T00:34:25;101072.38;;;9.92;63.67
76285;BME280;65096;50.998;7.098;2023-01-05T00:36:52;101069.94;;;10.01;63.42
76285;BME280;65096;50.998;7.098;2023-01-05T00:39:18;101073.53;;;10.12;63.55
76285;BME280;65096;50.998;7.098;2023-01-05T00:41:45;101071.44;;;9.87;63.92
76285;BME280;65096;50.998;7.098;2023-01-05T00:44:12;101081.06;;;9.98;63.61
76285;BME280;65096;50.998;7.098;2023-01-05T00:46:40;101079.50;;;10.09;63.11
76285;BME280;65096;50.998;7.098;2023-01-05T00:49:06;101077.78;;;10.10;63.16
76285;BME280;65096;50.998;7.098;2023-01-05T00:51:33;101075.94;;;10.01;63.51
76285;BME280;65096;50.998;7.098;2023-01-05T00:54:00;101063.00;;;9.97;63.86
76285;BME280;65096;50.998;7.098;2023-01-05T00:56:26;101071.59;;;9.96;63.51
76285;BME280;65096;50.998;7.098;2023-01-05T00:58:53;101066.44;;;9.97;63.33
76285;BME280;65096;50.998;7.098;2023-01-05T01:01:20;101062.25;;;10.04;62.94
76285;BME280;65096;50.998;7.098;2023-01-05T01:03:48;101062.91;;;9.91;63.13
76285;BME280;65096;50.998;7.098;2023-01-05T01:06:15;101058.66;;;9.93;63.56
76285;BME280;65096;50.998;7.098;2023-01-05T01:08:42;101057.75;;;9.91;63.41
76285;BME280;65096;50.998;7.098;2023-01-05T01:11:09;101070.72;;;9.97;63.20
76285;BME280;65096;50.998;7.098;2023-01-05T01:13:36;101077.66;;;10.01;63.08
76285;BME280;65096;50.998;7.098;2023-01-05T01:16:11;101087.88;;;9.95;63.46
76285;BME280;65096;50.998;7.098;2023-01-05T01:18:39;101087.66;;;9.80;63.77
76285;BME280;65096;50.998;7.098;2023-01-05T01:21:08;101086.13;;;9.92;63.83
76285;BME280;65096;50.998;7.098;2023-01-05T01:23:35;101091.28;;;9.92;63.46
76285;BME280;65096;50.998;7.098;2023-01-05T01:26:03;101085.31;;;9.96;63.31
76285;BME280;65096;50.998;7.098;2023-01-05T01:28:30;101086.88;;;9.87;63.13
76285;BME280;65096;50.998;7.098;2023-01-05T01:30:57;101078.22;;;9.82;63.50
76285;BME280;65096;50.998;7.098;2023-01-05T01:33:23;101084.19;;;9.78;64.08
76285;BME280;65096;50.998;7.098;2023-01-05T01:35:50;101085.19;;;9.89;63.31
76285;BME280;65096;50.998;7.098;2023-01-05T01:38:18;101095.56;;;9.93;63.03
76285;BME280;65096;50.998;7.098;2023-01-05T01:40:46;101095.59;;;9.95;62.90
76285;BME280;65096;50.998;7.098;2023-01-05T01:43:14;101081.78;;;9.90;63.33
76285;BME280;65096;50.998;7.098;2023-01-05T01:45:42;101098.03;;;9.86;63.41
76285;BME280;65096;50.998;7.098;2023-01-05T01:48:10;101096.41;;;9.91;62.86
76285;BME280;65096;50.998;7.098;2023-01-05T01:50:40;101094.63;;;9.88;62.74
76285;BME280;65096;50.998;7.098;2023-01-05T01:53:13;101088.69;;;9.92;63.13
76285;BME280;65096;50.998;7.098;2023-01-05T01:55:43;101075.63;;;9.82;63.41
76285;BME280;65096;50.998;7.098;2023-01-05T01:58:12;101093.78;;;9.88;63.15
76285;BME280;65096;50.998;7.098;2023-01-05T02:00:42;101107.31;;;9.75;63.84
76285;BME280;65096;50.998;7.098;2023-01-05T02:03:09;101103.06;;;9.77;63.87
76285;BME280;65096;50.998;7.098;2023-01-05T02:05:36;101108.06;;;9.69;64.14
76285;BME280;65096;50.998;7.098;2023-01-05T02:08:05;101082.28;;;9.68;63.78
76285;BME280;65096;50.998;7.098;2023-01-05T02:10:41;101097.84;;;9.74;64.33
76285;BME280;65096;50.998;7.098;2023-01-05T02:13:22;101092.78;;;9.78;63.81
76285;BME280;65096;50.998;7.098;2023-01-05T02:15:59;101089.31;;;9.76;64.10
76285;BME280;65096;50.998;7.098;2023-01-05T02:18:42;101088.31;;;9.67;64.23
76285;BME280;65096;50.998;7.098;2023-01-05T02:21:21;101093.56;;;9.74;63.95
76285;BME280;65096;50.998;7.098;2023-01-05T02:24:23;101086.81;;;9.82;63.27
76285;BME280;65096;50.998;7.098;2023-01-05T02:33:18;101103.06;;;9.77;63.67
76285;BME280;65096;50.998;7.098;2023-01-05T02:35:53;101107.22;;;9.69;64.43
76285;BME280;65096;50.998;7.098;2023-01-05T02:38:31;101101.97;;;9.64;64.53
76285;BME280;65096;50.998;7.098;2023-01-05T02:41:05;101113.16;;;9.65;64.18
76285;BME280;65096;50.998;7.098;2023-01-05T02:43:33;101106.31;;;9.67;64.42
76285;BME280;65096;50.998;7.098;2023-01-05T02:46:00;101110.59;;;9.66;64.20
76285;BME280;65096;50.998;7.098;2023-01-05T02:48:28;101119.81;;;9.52;64.58
76285;BME280;65096;50.998;7.098;2023-01-05T02:50:59;101125.78;;;9.50;65.30
76285;BME280;65096;50.998;7.098;2023-01-05T02:53:30;101125.94;;;9.59;64.83
76285;BME280;65096;50.998;7.098;2023-01-05T02:56:01;101125.06;;;9.58;64.72
76285;BME280;65096;50.998;7.098;2023-01-05T02:58:33;101132.84;;;9.63;64.31
76285;BME280;65096;50.998;7.098;2023-01-05T03:01:04;101129.41;;;9.61;64.07
76285;BME280;65096;50.998;7.098;2023-01-05T03:03:37;101139.81;;;9.67;64.13
76285;BME280;65096;50.998;7.098;2023-01-05T03:06:10;101136.25;;;9.60;64.35
76285;BME280;65096;50.998;7.098;2023-01-05T03:08:46;101140.63;;;9.66;63.96
76285;BME280;65096;50.998;7.098;2023-01-05T03:11:14;101127.66;;;9.60;64.59
76285;BME280;65096;50.998;7.098;2023-01-05T03:14:04;101132.66;;;9.51;64.41
76285;BME280;65096;50.998;7.098;2023-01-05T03:16:35;101125.94;;;9.59;63.88
76285;BME280;65096;50.998;7.098;2023-01-05T03:19:07;101148.09;;;9.51;64.53
76285;BME280;65096;50.998;7.098;2023-01-05T03:21:54;101132.66;;;9.51;64.01
76285;BME280;65096;50.998;7.098;2023-01-05T03:24:41;101135.38;;;9.60;63.94
76285;BME280;65096;50.998;7.098;2023-01-05T03:27:27;101137.13;;;9.61;64.14
76285;BME280;65096;50.998;7.098;2023-01-05T03:30:12;101140.44;;;9.55;64.36
76285;BME280;65096;50.998;7.098;2023-01-05T03:33:03;101139.56;;;9.55;64.11
76285;BME280;65096;50.998;7.098;2023-01-05T03:35:51;101142.06;;;9.50;64.61
76285;BME280;65096;50.998;7.098;2023-01-05T03:38:21;101143.09;;;9.60;64.33
76285;BME280;65096;50.998;7.098;2023-01-05T03:40:51;101140.25;;;9.43;64.72
76285;BME280;65096;50.998;7.098;2023-01-05T03:43:19;101139.34;;;9.41;64.44
76285;BME280;65096;50.998;7.098;2023-01-05T03:45:51;101135.19;;;9.48;64.53
76285;BME280;65096;50.998;7.098;2023-01-05T03:48:19;101130.47;;;9.24;65.37
76285;BME280;65096;50.998;7.098;2023-01-05T03:50:46;101132.56;;;9.45;64.85
76285;BME280;65096;50.998;7.098;2023-01-05T03:53:15;101141.00;;;9.38;64.86
76285;BME280;65096;50.998;7.098;2023-01-05T03:55:41;101139.41;;;9.44;64.49
76285;BME280;65096;50.998;7.098;2023-01-05T03:58:08;101142.81;;;9.42;65.24
76285;BME280;65096;50.998;7.098;2023-01-05T04:00:35;101148.63;;;9.32;65.78
76285;BME280;65096;50.998;7.098;2023-01-05T04:03:02;101147.88;;;9.40;65.18
76285;BME280;65096;50.998;7.098;2023-01-05T04:05:29;101146.38;;;9.50;65.15
76285;BME280;65096;50.998;7.098;2023-01-05T04:07:55;101157.44;;;9.46;65.06
76285;BME280;65096;50.998;7.098;2023-01-05T04:10:23;101161.69;;;9.44;64.96
76285;BME280;65096;50.998;7.098;2023-01-05T04:12:50;101159.25;;;9.50;64.51
76285;BME280;65096;50.998;7.098;2023-01-05T04:15:17;101149.56;;;9.37;64.89
76285;BME280;65096;50.998;7.098;2023-01-05T04:17:43;101152.78;;;9.25;65.77
76285;BME280;65096;50.998;7.098;2023-01-05T04:20:11;101154.72;;;9.37;65.38
76285;BME280;65096;50.998;7.098;2023-01-05T04:22:37;101159.09;;;9.42;64.64
76285;BME280;65096;50.998;7.098;2023-01-05T04:25:05;101149.50;;;9.34;65.45
76285;BME280;65096;50.998;7.098;2023-01-05T04:27:33;101155.75;;;9.46;64.60
76285;BME280;65096;50.998;7.098;2023-01-05T04:30:00;101159.31;;;9.54;64.76
76285;BME280;65096;50.998;7.098;2023-01-05T04:32:26;101162.63;;;9.47;65.27
76285;BME280;65096;50.998;7.098;2023-01-05T04:34:53;101157.28;;;9.37;66.14
76285;BME280;65096;50.998;7.098;2023-01-05T04:37:20;101158.88;;;9.30;66.49
76285;BME280;65096;50.998;7.098;2023-01-05T04:39:47;101158.94;;;9.33;66.59
76285;BME280;65096;50.998;7.098;2023-01-05T04:42:14;101165.03;;;9.38;66.75
76285;BME280;65096;50.998;7.098;2023-01-05T04:44:42;101161.50;;;9.33;66.73
76285;BME280;65096;50.998;7.098;2023-01-05T04:47:09;101166.56;;;9.29;67.32
76285;BME280;65096;50.998;7.098;2023-01-05T04:49:35;101169.19;;;9.32;67.39
76285;BME280;65096;50.998;7.098;2023-01-05T04:52:02;101161.38;;;9.26;67.76
76285;BME280;65096;50.998;7.098;2023-01-05T04:54:29;101161.44;;;9.30;67.18
76285;BME280;65096;50.998;7.098;2023-01-05T04:56:56;101164.06;;;9.32;67.41
76285;BME280;65096;50.998;7.098;2023-01-05T04:59:22;101158.66;;;9.19;67.45
76285;BME280;65096;50.998;7.098;2023-01-05T05:01:50;101163.91;;;9.24;67.28
76285;BME280;65096;50.998;7.098;2023-01-05T05:04:19;101164.53;;;9.11;68.31
76285;BME280;65096;50.998;7.098;2023-01-05T05:06:45;101168.22;;;9.25;67.34
76285;BME280;65096;50.998;7.098;2023-01-05T05:09:12;101173.28;;;9.21;68.06
76285;BME280;65096;50.998;7.098;2023-01-05T05:11:39;101172.47;;;9.23;68.01
76285;BME280;65096;50.998;7.098;2023-01-05T05:14:06;101182.63;;;9.17;68.05
76285;BME280;65096;50.998;7.098;2023-01-05T05:16:38;101183.38;;;9.11;68.56
76285;BME280;65096;50.998;7.098;2023-01-05T05:19:07;101181.47;;;9.03;69.56
76285;BME280;65096;50.998;7.098;2023-01-05T05:21:34;101185.94;;;9.11;68.61
76285;BME280;65096;50.998;7.098;2023-01-05T05:24:00;101188.28;;;9.01;68.99
76285;BME280;65096;50.998;7.098;2023-01-05T05:26:27;101189.13;;;9.00;69.63
76285;BME280;65096;50.998;7.098;2023-01-05T05:28:56;101184.84;;;9.00;69.67
76285;BME280;65096;50.998;7.098;2023-01-05T05:31:23;101185.84;;;9.08;68.46
76285;BME280;65096;50.998;7.098;2023-01-05T05:33:49;101186.47;;;8.97;69.37
76285;BME280;65096;50.998;7.098;2023-01-05T05:36:17;101190.75;;;8.95;69.76
76285;BME280;65096;50.998;7.098;2023-01-05T05:38:44;101186.31;;;8.89;70.05
76285;BME280;65096;50.998;7.098;2023-01-05T05:41:11;101188.97;;;8.94;69.32
76285;BME280;65096;50.998;7.098;2023-01-05T05:43:38;101205.34;;;8.97;69.50
76285;BME280;65096;50.998;7.098;2023-01-05T05:46:04;101202.03;;;9.01;69.14
76285;BME280;65096;50.998;7.098;2023-01-05T05:48:31;101199.25;;;8.92;70.13
76285;BME280;65096;50.998;7.098;2023-01-05T05:50:58;101196.06;;;9.04;68.95
76285;BME280;65096;50.998;7.098;2023-01-05T05:53:26;101198.72;;;9.08;69.01
76285;BME280;65096;50.998;7.098;2023-01-05T05:55:52;101213.13;;;9.00;69.57
76285;BME280;65096;50.998;7.098;2023-01-05T05:58:19;101207.19;;;9.03;69.36
76285;BME280;65096;50.998;7.098;2023-01-05T06:00:48;101217.47;;;9.01;69.48
76285;BME280;65096;50.998;7.098;2023-01-05T06:03:15;101216.50;;;8.96;69.94
76285;BME280;65096;50.998;7.098;2023-01-05T06:05:43;101223.31;;;8.96;69.42
76285;BME280;65096;50.998;7.098;2023-01-05T06:08:09;101220.09;;;9.04;68.96
76285;BME280;65096;50.998;7.098;2023-01-05T06:10:37;101224.41;;;9.07;68.77
76285;BME280;65096;50.998;7.098;2023-01-05T06:13:04;101234.50;;;8.96;69.28
76285;BME280;65096;50.998;7.098;2023-01-05T06:15:31;101240.44;;;8.95;69.49
76285;BME280;65096;50.998;7.098;2023-01-05T06:17:58;101238.84;;;9.00;68.86
76285;BME280;65096;50.998;7.098;2023-01-05T06:20:25;101244.13;;;9.06;68.44
76285;BME280;65096;50.998;7.098;2023-01-05T06:22:51;101242.19;;;8.95;69.45
76285;BME280;65096;50.998;7.098;2023-01-05T06:25:18;101237.81;;;8.92;69.52
76285;BME280;65096;50.998;7.098;2023-01-05T06:27:46;101239.63;;;8.96;69.39
76285;BME280;65096;50.998;7.098;2023-01-05T06:30:13;101237.16;;;9.01;69.25
76285;BME280;65096;50.998;7.098;2023-01-05T06:32:39;101237.03;;;8.95;68.34
76285;BME280;65096;50.998;7.098;2023-01-05T06:35:07;101244.78;;;8.96;68.92
76285;BME280;65096;50.998;7.098;2023-01-05T06:37:34;101244.41;;;8.80;69.87
76285;BME280;65096;50.998;7.098;2023-01-05T06:40:00;101247.34;;;8.96;68.85
76285;BME280;65096;50.998;7.098;2023-01-05T06:42:27;101254.25;;;8.99;69.01
76285;BME280;65096;50.998;7.098;2023-01-05T06:44:55;101249.88;;;8.93;69.30
76285;BME280;65096;50.998;7.098;2023-01-05T06:47:22;101243.09;;;8.98;69.00
76285;BME280;65096;50.998;7.098;2023-01-05T06:49:50;101256.03;;;9.01;68.68
76285;BME280;65096;50.998;7.098;2023-01-05T06:52:20;101262.75;;;8.95;69.20
76285;BME280;65096;50.998;7.098;2023-01-05T06:54:47;101266.09;;;8.91;69.47
76285;BME280;65096;50.998;7.098;2023-01-05T06:57:14;101268.75;;;8.95;69.28
76285;BME280;65096;50.998;7.098;2023-01-05T06:59:40;101274.53;;;8.85;69.67
76285;BME280;65096;50.998;7.098;2023-01-05T07:02:12;101269.53;;;8.91;69.35
76285;BME280;65096;50.998;7.098;2023-01-05T07:04:39;101270.28;;;8.87;69.54
76285;BME280;65096;50.998;7.098;2023-01-05T07:07:05;101276.25;;;8.85;69.43
76285;BME280;65096;50.998;7.098;2023-01-05T07:09:32;101277.25;;;8.91;68.91
76285;BME280;65096;50.998;7.098;2023-01-05T07:11:59;101261.88;;;8.94;68.72
76285;BME280;65096;50.998;7.098;2023-01-05T07:14:25;101274.69;;;8.91;69.13
76285;BME280;65096;50.998;7.098;2023-01-05T07:16:52;101278.97;;;8.92;68.96
76285;BME280;65096;50.998;7.098;2023-01-05T07:19:20;101268.81;;;8.98;68.68
76285;BME280;65096;50.998;7.098;2023-01-05T07:21:47;101282.56;;;8.99;68.38
76285;BME280;65096;50.998;7.098;2023-01-05T07:24:14;101288.63;;;9.02;68.21
76285;BME280;65096;50.998;7.098;2023-01-05T07:26:40;101291.84;;;8.92;68.77
76285;BME280;65096;50.998;7.098;2023-01-05T07:29:07;101288.72;;;9.07;67.97
76285;BME280;65096;50.998;7.098;2023-01-05T07:31:34;101294.34;;;8.89;68.29
76285;BME280;65096;50.998;7.098;2023-01-05T07:34:00;101302.00;;;8.86;68.49
76285;BME280;65096;50.998;7.098;2023-01-05T07:36:28;101300.47;;;8.94;68.10
76285;BME280;65096;50.998;7.098;2023-01-05T07:38:58;101308.19;;;8.94;68.20
76285;BME280;65096;50.998;7.098;2023-01-05T07:41:25;101312.66;;;9.03;67.55
76285;BME280;65096;50.998;7.098;2023-01-05T07:43:52;101304.63;;;8.89;68.19
76285;BME280;65096;50.998;7.098;2023-01-05T07:46:18;101312.47;;;8.95;68.06
76285;BME280;65096;50.998;7.098;2023-01-05T07:48:45;101316.78;;;8.95;68.56
76285;BME280;65096;50.998;7.098;2023-01-05T07:51:12;101313.34;;;8.96;68.30
76285;BME280;65096;50.998;7.098;2023-01-05T07:53:40;101327.16;;;8.99;67.70
76285;BME280;65096;50.998;7.098;2023-01-05T07:56:09;101332.31;;;8.99;67.72
76285;BME280;65096;50.998;7.098;2023-01-05T07:58:36;101321.28;;;9.06;67.32
76285;BME280;65096;50.998;7.098;2023-01-05T08:01:03;101320.94;;;8.90;67.87
76285;BME280;65096;50.998;7.098;2023-01-05T08:03:30;101328.94;;;9.03;67.67
76285;BME280;65096;50.998;7.098;2023-01-05T08:05:57;101322.78;;;8.97;67.92
76285;BME280;65096;50.998;7.098;2023-01-05T08:08:24;101328.81;;;8.97;67.92
76285;BME280;65096;50.998;7.098;2023-01-05T08:10:52;101340.09;;;9.02;67.58
76285;BME280;65096;50.998;7.098;2023-01-05T08:13:18;101347.28;;;9.15;66.69
76285;BME280;65096;50.998;7.098;2023-01-05T08:16:03;101342.72;;;9.05;67.46
76285;BME280;65096;50.998;7.098;2023-01-05T08:18:33;101342.75;;;9.07;67.38
76285;BME280;65096;50.998;7.098;2023-01-05T08:21:00;101345.53;;;9.14;66.97
76285;BME280;65096;50.998;7.098;2023-01-05T08:23:30;101343.75;;;9.12;66.91
76285;BME280;65096;50.998;7.098;2023-01-05T08:26:02;101350.59;;;9.11;67.04
76285;BME280;65096;50.998;7.098;2023-01-05T08:28:29;101351.34;;;9.07;67.11
76285;BME280;65096;50.998;7.098;2023-01-05T08:30:59;101354.66;;;9.03;67.56
76285;BME280;65096;50.998;7.098;2023-01-05T08:33:26;101362.66;;;9.12;67.05
76285;BME280;65096;50.998;7.098;2023-01-05T08:35:53;101359.16;;;9.10;67.37
76285;BME280;65096;50.998;7.098;2023-01-05T08:38:20;101343.81;;;8.79;67.94
76285;BME280;65096;50.998;7.098;2023-01-05T08:40:47;101370.03;;;9.00;67.70
76285;BME280;65096;50.998;7.098;2023-01-05T08:43:15;101359.09;;;9.09;67.28
76285;BME280;65096;50.998;7.098;2023-01-05T08:45:46;101352.72;;;8.92;67.71
76285;BME280;65096;50.998;7.098;2023-01-05T08:48:13;101364.38;;;9.13;66.93
76285;BME280;65096;50.998;7.098;2023-01-05T08:50:40;101367.81;;;9.14;66.67
76285;BME280;65096;50.998;7.098;2023-01-05T08:53:06;101365.03;;;9.06;67.38
76285;BME280;65096;50.998;7.098;2023-01-05T08:55:33;101372.03;;;9.10;67.09
76285;BME280;65096;50.998;7.098;2023-01-05T08:58:00;101371.19;;;9.11;66.97
76285;BME280;65096;50.998;7.098;2023-01-05T09:00:28;101378.91;;;9.11;67.27
76285;BME280;65096;50.998;7.098;2023-01-05T09:02:54;101382.25;;;9.09;67.28
76285;BME280;65096;50.998;7.098;2023-01-05T09:05:21;101385.00;;;9.15;66.92
76285;BME280;65096;50.998;7.098;2023-01-05T09:07:48;101383.97;;;9.10;66.94
76285;BME280;65096;50.998;7.098;2023-01-05T09:10:14;101390.94;;;9.12;67.04
76285;BME280;65096;50.998;7.098;2023-01-05T09:12:44;101387.47;;;9.10;67.96
76285;BME280;65096;50.998;7.098;2023-01-05T09:15:10;101396.22;;;9.18;66.81
76285;BME280;65096;50.998;7.098;2023-01-05T09:17:38;101395.34;;;9.18;66.96
76285;BME280;65096;50.998;7.098;2023-01-05T09:20:06;101391.84;;;9.14;67.58
76285;BME280;65096;50.998;7.098;2023-01-05T09:22:33;101395.72;;;9.33;66.70
76285;BME280;65096;50.998;7.098;2023-01-05T09:25:00;101390.25;;;9.19;66.42
76285;BME280;65096;50.998;7.098;2023-01-05T09:27:27;101391.28;;;9.28;66.43
76285;BME280;65096;50.998;7.098;2023-01-05T09:29:54;101399.00;;;9.28;66.46
76285;BME280;65096;50.998;7.098;2023-01-05T09:32:20;101410.75;;;9.16;67.06
76285;BME280;65096;50.998;7.098;2023-01-05T09:34:49;101406.44;;;9.14;66.75
76285;BME280;65096;50.998;7.098;2023-01-05T09:37:16;101410.13;;;9.27;66.58
76285;BME280;65096;50.998;7.098;2023-01-05T09:39:43;101419.66;;;9.31;66.32
76285;BME280;65096;50.998;7.098;2023-01-05T09:42:13;101416.16;;;9.27;66.49
76285;BME280;65096;50.998;7.098;2023-01-05T09:44:44;101409.03;;;9.15;66.38
76285;BME280;65096;50.998;7.098;2023-01-05T09:47:16;101427.09;;;9.18;66.80
76285;BME280;65096;50.998;7.098;2023-01-05T09:49:45;101425.81;;;9.37;66.29
76285;BME280;65096;50.998;7.098;2023-01-05T09:52:18;101431.09;;;9.42;65.50
76285;BME280;65096;50.998;7.098;2023-01-05T09:54:46;101434.47;;;9.41;65.94
76285;BME280;65096;50.998;7.098;2023-01-05T09:57:15;101441.38;;;9.42;66.33
76285;BME280;65096;50.998;7.098;2023-01-05T09:59:44;101450.03;;;9.45;65.52
76285;BME280;65096;50.998;7.098;2023-01-05T10:02:26;101458.56;;;9.43;65.52
76285;BME280;65096;50.998;7.098;2023-01-05T10:04:55;101462.09;;;9.48;65.25
76285;BME280;65096;50.998;7.098;2023-01-05T10:07:33;101456.09;;;9.47;65.26
76285;BME280;65096;50.998;7.098;2023-01-05T10:10:07;101459.59;;;9.51;65.38
76285;BME280;65096;50.998;7.098;2023-01-05T10:12:43;101460.56;;;9.56;65.07
76285;BME280;65096;50.998;7.098;2023-01-05T10:15:31;101445.91;;;9.53;65.10
76285;BME280;65096;50.998;7.098;2023-01-05T10:18:04;101456.19;;;9.52;65.19
76285;BME280;65096;50.998;7.098;2023-01-05T10:20:44;101453.47;;;9.46;65.77
76285;BME280;65096;50.998;7.098;2023-01-05T10:23:25;101459.56;;;9.49;65.70
76285;BME280;65096;50.998;7.098;2023-01-05T10:26:01;101425.50;;;9.24;65.07
76285;BME280;65096;50.998;7.098;2023-01-05T10:28:34;101460.56;;;9.56;65.11
76285;BME280;65096;50.998;7.098;2023-01-05T10:31:13;101464.78;;;9.52;65.30
76285;BME280;65096;50.998;7.098;2023-01-05T10:33:47;101458.06;;;9.59;64.29
76285;BME280;65096;50.998;7.098;2023-01-05T10:36:30;101461.41;;;9.55;65.05
76285;BME280;65096;50.998;7.098;2023-01-05T10:39:05;101465.47;;;9.45;64.74
76285;BME280;65096;50.998;7.098;2023-01-05T10:41:41;101469.78;;;9.45;65.16
76285;BME280;65096;50.998;7.098;2023-01-05T10:44:34;101474.25;;;9.55;65.65
76285;BME280;65096;50.998;7.098;2023-01-05T10:47:07;101467.59;;;9.63;64.56
76285;BME280;65096;50.998;7.098;2023-01-05T10:49:34;101469.25;;;9.59;65.70
76285;BME280;65096;50.998;7.098;2023-01-05T10:52:01;101471.00;;;9.62;65.30
76285;BME280;65096;50.998;7.098;2023-01-05T10:54:35;101472.69;;;9.61;65.36
76285;BME280;65096;50.998;7.098;2023-01-05T10:57:29;101480.50;;;9.64;64.83
76285;BME280;65096;50.998;7.098;2023-01-05T10:59:59;101484.84;;;9.67;64.51
76285;BME280;65096;50.998;7.098;2023-01-05T11:02:27;101469.31;;;9.62;64.67
76285;BME280;65096;50.998;7.098;2023-01-05T11:05:02;101479.59;;;9.62;64.22
76285;BME280;65096;50.998;7.098;2023-01-05T11:07:30;101472.00;;;9.68;63.28
76285;BME280;65096;50.998;7.098;2023-01-05T11:10:00;101473.56;;;9.62;64.12
76285;BME280;65096;50.998;7.098;2023-01-05T11:12:27;101476.88;;;9.56;64.43
76285;BME280;65096;50.998;7.098;2023-01-05T11:14:55;101477.91;;;9.64;64.28
76285;BME280;65096;50.998;7.098;2023-01-05T11:17:26;101472.75;;;9.64;64.34
76285;BME280;65096;50.998;7.098;2023-01-05T11:19:55;101476.34;;;9.71;64.64
76285;BME280;65096;50.998;7.098;2023-01-05T11:22:27;101479.88;;;9.74;63.98
76285;BME280;65096;50.998;7.098;2023-01-05T11:25:23;101484.19;;;9.75;63.73
76285;BME280;65096;50.998;7.098;2023-01-05T11:28:12;101478.09;;;9.72;63.31
76285;BME280;65096;50.998;7.098;2023-01-05T11:30:56;101483.56;;;9.87;63.12
76285;BME280;65096;50.998;7.098;2023-01-05T11:33:25;101487.75;;;9.82;63.70
76285;BME280;65096;50.998;7.098;2023-01-05T11:35:55;101460.84;;;9.68;63.24
76285;BME280;65096;50.998;7.098;2023-01-05T11:38:24;101475.81;;;9.85;63.11
76285;BME280;65096;50.998;7.098;2023-01-05T11:40:53;101478.44;;;9.88;63.69
76285;BME280;65096;50.998;7.098;2023-01-05T11:43:22;101449.81;;;9.73;63.22
76285;BME280;65096;50.998;7.098;2023-01-05T11:45:52;101480.31;;;9.94;62.33
76285;BME280;65096;50.998;7.098;2023-01-05T11:48:23;101478.84;;;10.06;62.81
76285;BME280;65096;50.998;7.098;2023-01-05T11:50:53;101479.41;;;9.93;63.14
76285;BME280;65096;50.998;7.098;2023-01-05T11:53:23;101479.44;;;9.95;62.42
76285;BME280;65096;50.998;7.098;2023-01-05T11:56:00;101483.13;;;10.06;62.54
76285;BME280;65096;50.998;7.098;2023-01-05T11:58:31;101486.66;;;10.11;62.71
76285;BME280;65096;50.998;7.098;2023-01-05T12:04:19;101492.72;;;10.13;61.17
76285;BME280;65096;50.998;7.098;2023-01-05T12:06:54;101490.22;;;10.16;61.84
76285;BME280;65096;50.998;7.098;2023-01-05T12:09:29;101489.50;;;10.23;61.93
76285;BME280;65096;50.998;7.098;2023-01-05T12:12:08;101486.06;;;10.24;62.34
76285;BME280;65096;50.998;7.098;2023-01-05T12:14:56;101484.38;;;10.24;62.46
76285;BME280;65096;50.998;7.098;2023-01-05T12:17:34;101479.19;;;10.23;62.11
76285;BME280;65096;50.998;7.098;2023-01-05T12:20:09;101481.88;;;10.29;61.01
76285;BME280;65096;50.998;7.098;2023-01-05T12:23:15;101475.06;;;10.31;61.10
76285;BME280;65096;50.998;7.098;2023-01-05T12:25:52;101474.13;;;10.27;61.45
76285;BME280;65096;50.998;7.098;2023-01-05T12:31:25;101475.88;;;10.30;60.84
76285;BME280;65096;50.998;7.098;2023-01-05T12:34:11;101470.78;;;10.33;60.50
76285;BME280;65096;50.998;7.098;2023-01-05T12:36:56;101484.50;;;10.32;60.88
76285;BME280;65096;50.998;7.098;2023-01-05T12:39:46;101470.91;;;10.36;60.37
76285;BME280;65096;50.998;7.098;2023-01-05T12:42:33;101477.69;;;10.34;60.78
76285;BME280;65096;50.998;7.098;2023-01-05T12:45:31;101486.19;;;10.30;60.85
76285;BME280;65096;50.998;7.098;2023-01-05T12:48:03;101481.78;;;10.23;60.52
76285;BME280;65096;50.998;7.098;2023-01-05T12:50:34;101488.00;;;10.34;60.07
76285;BME280;65096;50.998;7.098;2023-01-05T12:53:14;101484.53;;;10.33;59.38
76285;BME280;65096;50.998;7.098;2023-01-05T12:55:47;101490.69;;;10.38;59.45
76285;BME280;65096;50.998;7.098;2023-01-05T12:58:17;101489.84;;;10.39;59.87
76285;BME280;65096;50.998;7.098;2023-01-05T13:00:49;101490.66;;;10.37;59.22
76285;BME280;65096;50.998;7.098;2023-01-05T13:03:20;101481.38;;;10.45;60.38
76285;BME280;65096;50.998;7.098;2023-01-05T13:05:56;101491.00;;;10.53;60.46
76285;BME280;65096;50.998;7.098;2023-01-05T13:08:31;101490.25;;;10.60;60.34
76285;BME280;65096;50.998;7.098;2023-01-05T13:11:02;101492.72;;;10.54;60.33
76285;BME280;65096;50.998;7.098;2023-01-05T13:13:36;101470.59;;;10.66;59.79
76285;BME280;65096;50.998;7.098;2023-01-05T13:16:11;101478.22;;;10.59;58.69
76285;BME280;65096;50.998;7.098;2023-01-05T13:18:41;101480.16;;;10.71;58.78
76285;BME280;65096;50.998;7.098;2023-01-05T13:21:10;101474.94;;;10.68;58.60
76285;BME280;65096;50.998;7.098;2023-01-05T13:23:40;101476.63;;;10.66;58.46
76285;BME280;65096;50.998;7.098;2023-01-05T13:26:13;101469.78;;;10.68;58.72
76285;BME280;65096;50.998;7.098;2023-01-05T13:28:41;101467.91;;;10.59;59.55